createdAt,value
2018-01-10T00:00:54.446Z,23.33
2018-01-10T00:03:23.282Z,27.08
2018-01-10T00:05:51.968Z,24.83
2018-01-10T00:08:20.449Z,20.65
2018-01-10T00:10:49.137Z,27.25
2018-01-10T00:13:17.808Z,25.62
2018-01-10T00:15:46.502Z,23.80
2018-01-10T00:18:14.838Z,22.02
2018-01-10T00:20:44.280Z,27.55
2018-01-10T00:23:12.953Z,28.27
2018-01-10T00:25:41.637Z,24.63
2018-01-10T00:28:10.305Z,23.52
2018-01-10T00:30:38.989Z,25.50
2018-01-10T00:33:08.422Z,19.35
2018-01-10T00:35:37.300Z,24.50
2018-01-10T00:38:05.960Z,26.05
2018-01-10T00:40:35.405Z,25.00
2018-01-10T00:43:04.082Z,31.45
2018-01-10T00:45:32.769Z,24.52
2018-01-10T00:48:01.445Z,25.83
2018-01-10T00:50:30.178Z,22.33
2018-01-10T00:52:59.754Z,25.85
2018-01-10T00:55:28.440Z,35.20
2018-01-10T00:57:57.101Z,23.33
2018-01-10T01:00:26.560Z,25.92
2018-01-10T01:02:55.228Z,31.85
2018-01-10T01:05:23.602Z,23.80
2018-01-10T01:07:52.273Z,27.58
2018-01-10T01:10:20.941Z,27.95
2018-01-10T01:12:50.401Z,30.50
2018-01-10T01:15:19.073Z,25.62
2018-01-10T01:17:47.770Z,26.52
2018-01-10T01:20:16.444Z,22.90
2018-01-10T01:22:44.786Z,24.27
2018-01-10T01:25:13.478Z,30.25
2018-01-10T01:27:42.164Z,31.62
2018-01-10T01:30:11.626Z,29.60
2018-01-10T01:32:41.069Z,27.58
2018-01-10T01:35:10.521Z,24.92
2018-01-10T01:37:39.211Z,21.67
2018-01-10T01:40:07.884Z,35.13
2018-01-10T01:42:36.590Z,27.73
2018-01-10T01:45:05.702Z,31.15
2018-01-10T01:47:34.364Z,29.40
2018-01-10T01:50:03.057Z,32.58
2018-01-10T01:52:31.728Z,31.48
2018-01-10T01:55:00.433Z,30.52
2018-01-10T01:57:29.870Z,30.48
2018-01-10T01:59:59.134Z,28.45
2018-01-10T02:02:27.817Z,30.60
2018-01-10T02:04:56.485Z,31.60
2018-01-10T02:07:25.161Z,31.10
2018-01-10T02:09:53.843Z,29.48
2018-01-10T02:12:22.518Z,29.23
2018-01-10T02:14:51.950Z,32.03
2018-01-10T02:17:20.641Z,23.75
2018-01-10T02:19:49.304Z,28.48
2018-01-10T02:22:18.765Z,37.05
2018-01-10T02:24:47.438Z,29.98
2018-01-10T02:27:16.103Z,29.10
2018-01-10T02:29:44.789Z,34.45
2018-01-10T02:32:13.461Z,28.45
2018-01-10T02:34:42.152Z,30.95
2018-01-10T02:37:10.823Z,27.13
2018-01-10T02:39:40.261Z,34.55
2018-01-10T02:42:08.276Z,29.30
2018-01-10T02:44:36.960Z,33.47
2018-01-10T02:47:05.653Z,32.47
2018-01-10T02:49:34.324Z,32.35
2018-01-10T02:52:03.005Z,34.88
2018-01-10T02:54:31.696Z,35.85
2018-01-10T02:57:00.370Z,34.05
2018-01-10T02:59:29.068Z,32.08
2018-01-10T03:01:57.741Z,34.10
2018-01-10T03:04:26.416Z,32.65
2018-01-10T03:06:55.101Z,32.42
2018-01-10T03:09:23.770Z,34.92
2018-01-10T03:11:52.448Z,32.28
2018-01-10T03:14:21.129Z,33.03
2018-01-10T03:16:50.586Z,33.63
2018-01-10T03:19:19.264Z,35.40
2018-01-10T03:21:47.944Z,38.67
2018-01-10T03:24:16.628Z,34.13
2018-01-10T03:26:45.297Z,34.28
2018-01-10T03:29:13.969Z,41.80
2018-01-10T03:31:43.408Z,34.45
2018-01-10T03:34:12.080Z,30.27
2018-01-10T03:36:40.762Z,34.58
2018-01-10T03:39:09.425Z,33.97
2018-01-10T03:41:38.866Z,35.40
2018-01-10T03:44:07.551Z,33.15
2018-01-10T03:46:36.209Z,35.00
2018-01-10T03:49:05.666Z,32.85
2018-01-10T03:51:34.340Z,35.00
2018-01-10T03:54:03.019Z,37.65
2018-01-10T03:56:31.697Z,38.70
2018-01-10T03:59:00.367Z,37.42
2018-01-10T04:01:29.820Z,32.35
2018-01-10T04:03:58.485Z,32.35
2018-01-10T04:06:27.154Z,38.42
2018-01-10T04:08:55.835Z,38.03
2018-01-10T04:11:24.497Z,36.33
2018-01-10T04:13:53.184Z,39.30
2018-01-10T04:16:21.844Z,40.28
2018-01-10T04:18:50.512Z,40.85
2018-01-10T04:21:19.189Z,35.28
2018-01-10T04:23:47.852Z,37.42
2018-01-10T04:26:17.312Z,37.25
2018-01-10T04:28:45.968Z,35.60
2018-01-10T04:31:14.631Z,40.95
2018-01-10T04:33:44.069Z,40.83
2018-01-10T04:36:12.725Z,36.90
2018-01-10T04:38:41.413Z,38.10
2018-01-10T04:41:10.080Z,35.85
2018-01-10T04:43:39.168Z,33.10
2018-01-10T04:46:07.849Z,37.50
2018-01-10T04:48:36.500Z,34.63
2018-01-10T04:51:04.848Z,34.45
2018-01-10T04:53:33.511Z,37.28
2018-01-10T04:56:02.937Z,36.70
2018-01-10T04:58:31.612Z,39.42
2018-01-10T05:01:01.052Z,38.83
2018-01-10T05:03:30.503Z,36.15
2018-01-10T05:05:59.174Z,36.80
2018-01-10T05:08:27.837Z,37.80
2018-01-10T05:10:56.525Z,39.58
2018-01-10T05:13:25.189Z,46.08
2018-01-10T05:15:53.877Z,35.67
2018-01-10T05:18:22.541Z,38.53
2018-01-10T05:20:51.977Z,39.95
2018-01-10T05:23:20.649Z,41.55
2018-01-10T05:25:49.311Z,38.35
2018-01-10T05:28:18.765Z,38.13
2018-01-10T05:30:47.442Z,41.75
2018-01-10T05:33:16.881Z,39.28
2018-01-10T05:35:45.560Z,32.40
2018-01-10T05:38:14.231Z,37.95
2018-01-10T05:40:43.203Z,39.08
2018-01-10T05:43:11.860Z,35.03
2018-01-10T05:45:41.290Z,36.50
2018-01-10T05:48:09.973Z,38.28
2018-01-10T05:50:38.638Z,42.10
2018-01-10T05:53:08.115Z,37.65
2018-01-10T05:55:36.826Z,42.72
2018-01-10T05:58:05.502Z,36.03
2018-01-10T06:00:34.195Z,42.25
2018-01-10T06:03:03.653Z,38.35
2018-01-10T06:05:32.348Z,42.20
2018-01-10T06:08:01.021Z,46.33
2018-01-10T06:10:29.701Z,38.00
2018-01-10T06:12:58.389Z,52.50
2018-01-10T06:15:27.066Z,43.33
2018-01-10T06:17:55.582Z,43.25
2018-01-10T06:20:24.261Z,42.40
2018-01-10T06:22:53.513Z,40.92
2018-01-10T06:25:23.022Z,40.60
2018-01-10T06:27:52.474Z,41.37
2018-01-10T06:30:21.160Z,39.83
2018-01-10T06:32:50.161Z,42.42
2018-01-10T06:35:18.833Z,41.20
2018-01-10T06:37:47.536Z,46.10
2018-01-10T06:40:16.210Z,67.12
2018-01-10T06:42:44.901Z,78.60
2018-01-10T06:45:13.570Z,38.15
2018-01-10T06:47:42.231Z,38.90
2018-01-10T06:50:14.488Z,41.97
2018-01-10T07:12:58.402Z,44.97
2018-01-10T07:15:27.093Z,44.10
2018-01-10T07:17:56.357Z,41.67
2018-01-10T07:20:27.853Z,45.85
2018-01-10T07:22:59.913Z,47.20
2018-01-10T07:25:28.653Z,53.55
2018-01-10T07:27:57.424Z,42.85
2018-01-10T07:30:26.828Z,43.70
2018-01-10T07:33:01.282Z,52.15
2018-01-10T07:35:43.611Z,43.50
2018-01-10T07:38:13.486Z,48.35
2018-01-10T07:40:42.158Z,46.05
2018-01-10T07:43:11.161Z,44.63
2018-01-10T07:45:39.870Z,38.67
2018-01-10T07:48:08.572Z,49.15
2018-01-10T07:50:38.086Z,57.85
2018-01-10T07:53:07.518Z,50.05
2018-01-10T07:55:36.199Z,50.05
2018-01-10T07:58:04.952Z,49.10
2018-01-10T08:00:34.051Z,50.95
2018-01-10T08:03:03.529Z,50.50
2018-01-10T08:05:32.222Z,47.97
2018-01-10T08:08:00.923Z,46.78
2018-01-10T08:14:02.366Z,51.30
2018-01-10T08:16:31.041Z,44.33
2018-01-10T08:18:59.754Z,51.55
2018-01-10T08:21:28.454Z,52.08
2018-01-10T08:23:58.016Z,44.17
2018-01-10T08:26:26.729Z,48.10
2018-01-10T08:28:55.425Z,49.42
2018-01-10T08:31:24.099Z,51.60
2018-01-10T08:33:52.794Z,50.95
2018-01-10T08:36:21.493Z,51.05
2018-01-10T08:38:50.182Z,52.20
2018-01-10T08:41:18.856Z,51.33
2018-01-10T08:43:47.540Z,50.63
2018-01-10T08:46:16.225Z,51.37
2018-01-10T08:48:44.913Z,48.40
2018-01-10T08:51:13.625Z,49.53
2018-01-10T08:53:43.062Z,49.30
2018-01-10T08:56:11.749Z,57.40
2018-01-10T08:58:40.535Z,48.97
2018-01-10T09:01:09.262Z,56.72
2018-01-10T09:03:37.986Z,55.92
2018-01-10T09:06:08.224Z,50.10
2018-01-10T09:08:37.671Z,55.03
2018-01-10T09:11:06.382Z,52.75
2018-01-10T09:13:35.060Z,51.67
2018-01-10T09:16:03.749Z,50.55
2018-01-10T09:18:32.429Z,55.75
2018-01-10T09:21:01.101Z,46.78
2018-01-10T09:23:30.589Z,46.90
2018-01-10T09:25:59.269Z,52.33
2018-01-10T09:28:27.993Z,49.83
2018-01-10T09:30:57.324Z,48.55
2018-01-10T09:33:26.014Z,51.17
2018-01-10T09:35:54.710Z,55.15
2018-01-10T09:38:24.146Z,49.30
2018-01-10T09:40:52.735Z,50.58
2018-01-10T09:43:21.405Z,48.45
2018-01-10T09:45:50.109Z,52.13
2018-01-10T09:48:18.849Z,49.67
2018-01-10T09:50:48.293Z,49.05
2018-01-10T09:53:16.997Z,46.45
2018-01-10T09:55:45.686Z,46.80
2018-01-10T09:58:14.190Z,47.55
2018-01-10T10:00:43.243Z,43.35
2018-01-10T10:03:12.758Z,47.92
2018-01-10T10:05:41.473Z,64.40
2018-01-10T10:08:10.202Z,51.75
2018-01-10T10:10:39.693Z,47.62
2018-01-10T10:13:09.167Z,47.25
2018-01-10T10:15:37.929Z,45.67
2018-01-10T10:18:06.638Z,48.15
2018-01-10T10:20:35.317Z,43.87
2018-01-10T10:23:04.013Z,47.62
2018-01-10T10:25:32.754Z,49.03
2018-01-10T10:28:02.319Z,44.55
2018-01-10T10:30:32.462Z,49.65
2018-01-10T10:33:04.331Z,41.20
2018-01-10T10:35:34.609Z,42.45
2018-01-10T10:38:04.051Z,48.15
2018-01-10T10:40:34.401Z,43.80
2018-01-10T10:43:04.826Z,42.85
2018-01-10T10:45:33.820Z,44.97
2018-01-10T10:48:04.936Z,44.53
2018-01-10T10:50:39.821Z,46.05
2018-01-10T10:53:09.424Z,43.87
2018-01-10T10:55:38.782Z,42.92
2018-01-10T10:58:07.538Z,47.05
2018-01-10T11:00:37.980Z,45.38
2018-01-10T11:03:06.710Z,43.25
2018-01-10T11:05:36.656Z,44.75
2018-01-10T11:08:06.491Z,35.05
2018-01-10T11:10:35.227Z,45.45
2018-01-10T11:13:05.470Z,38.42
2018-01-10T11:15:33.855Z,40.40
2018-01-10T11:18:02.557Z,40.78
2018-01-10T11:20:31.248Z,38.45
2018-01-10T11:23:00.522Z,39.55
2018-01-10T11:25:29.219Z,36.05
2018-01-10T11:27:57.224Z,38.58
2018-01-10T11:30:26.921Z,38.55
2018-01-10T11:32:55.609Z,39.50
2018-01-10T11:35:24.301Z,37.70
2018-01-10T11:37:53.320Z,37.10
2018-01-10T11:40:22.052Z,42.10
2018-01-10T11:42:50.890Z,39.20
2018-01-10T11:45:19.590Z,43.63
2018-01-10T11:47:48.322Z,37.53
2018-01-10T11:50:17.005Z,37.50
2018-01-10T11:52:45.740Z,39.75
2018-01-10T11:55:14.443Z,38.05
2018-01-10T11:57:43.127Z,34.13
2018-01-10T12:00:11.835Z,39.13
2018-01-10T12:02:41.314Z,42.15
2018-01-10T12:05:10.005Z,41.10
2018-01-10T12:07:38.725Z,38.63
2018-01-10T12:10:08.406Z,34.80
2018-01-10T12:12:37.987Z,37.47
2018-01-10T12:15:13.700Z,39.90
2018-01-10T12:17:42.372Z,41.33
2018-01-10T12:20:12.157Z,38.13
2018-01-10T12:22:40.843Z,37.90
2018-01-10T12:25:09.510Z,37.60
2018-01-10T12:27:38.206Z,36.10
2018-01-10T12:30:06.879Z,40.60
2018-01-10T12:32:36.389Z,43.60
2018-01-10T12:35:05.084Z,39.20
2018-01-10T12:37:33.760Z,45.72
2018-01-10T12:40:02.462Z,39.72
2018-01-10T12:42:31.158Z,33.25
2018-01-10T12:44:59.887Z,41.42
2018-01-10T12:47:28.565Z,35.05
2018-01-10T12:49:58.054Z,40.63
2018-01-10T12:52:26.752Z,42.28
2018-01-10T12:54:56.201Z,38.15
2018-01-10T12:57:24.900Z,38.35
2018-01-10T12:59:53.578Z,39.33
2018-01-10T13:02:22.874Z,40.33
2018-01-10T13:04:51.568Z,36.60
2018-01-10T13:07:20.261Z,36.30
2018-01-10T13:09:48.969Z,41.17
2018-01-10T13:12:17.467Z,39.28
2018-01-10T13:14:46.961Z,40.60
2018-01-10T13:17:15.661Z,40.53
2018-01-10T13:19:45.309Z,42.67
2018-01-10T13:22:19.033Z,39.75
2018-01-10T13:24:48.280Z,40.28
2018-01-10T13:27:17.736Z,47.95
2018-01-10T13:29:46.422Z,38.40
2018-01-10T13:32:15.205Z,44.65
2018-01-10T13:34:43.908Z,47.85
2018-01-10T13:37:12.620Z,42.28
2018-01-10T13:39:42.066Z,43.42
2018-01-10T13:42:10.799Z,45.08
2018-01-10T13:44:39.657Z,38.55
2018-01-10T13:47:08.392Z,38.22
2018-01-10T13:49:37.074Z,47.20
2018-01-10T13:52:05.765Z,43.20
2018-01-10T13:54:34.477Z,35.53
2018-01-10T13:57:03.992Z,41.80
2018-01-10T13:59:32.701Z,40.22
2018-01-10T14:02:01.366Z,40.50
2018-01-10T14:04:30.053Z,43.20
2018-01-10T14:06:58.736Z,40.90
2018-01-10T14:09:27.406Z,45.83
2018-01-10T14:11:56.879Z,44.33
2018-01-10T14:14:25.569Z,40.25
2018-01-10T14:16:54.240Z,41.58
2018-01-10T14:19:22.950Z,44.28
2018-01-10T14:21:51.434Z,49.08
2018-01-10T14:24:20.133Z,42.05
2018-01-10T14:26:48.814Z,39.70
2018-01-10T14:29:17.736Z,43.10
2018-01-10T14:31:47.864Z,42.00
2018-01-10T14:34:16.538Z,38.28
2018-01-10T14:36:46.010Z,43.15
2018-01-10T14:39:14.357Z,42.45
2018-01-10T14:41:43.033Z,41.25
2018-01-10T14:44:11.716Z,39.85
2018-01-10T14:46:40.390Z,50.88
2018-01-10T14:49:09.089Z,38.35
2018-01-10T14:51:37.425Z,45.53
2018-01-10T14:54:06.098Z,40.83
2018-01-10T14:56:34.791Z,49.75
2018-01-10T14:59:03.494Z,45.85
2018-01-10T15:01:32.973Z,44.25
2018-01-10T15:04:01.676Z,48.83
2018-01-10T15:06:30.349Z,49.17
2018-01-10T15:08:59.032Z,46.83
2018-01-10T15:11:27.743Z,45.33
2018-01-10T15:13:56.458Z,44.92
2018-01-10T15:16:25.137Z,42.90
2018-01-10T15:18:54.583Z,44.03
2018-01-10T15:21:23.277Z,46.00
2018-01-10T15:23:51.954Z,47.45
2018-01-10T15:26:20.669Z,45.53
2018-01-10T15:28:49.331Z,56.72
2018-01-10T15:31:18.014Z,48.33
2018-01-10T15:33:47.467Z,46.88
2018-01-10T15:36:16.929Z,48.85
2018-01-10T15:38:45.622Z,51.37
2018-01-10T15:41:14.306Z,53.53
2018-01-10T15:43:43.042Z,48.80
2018-01-10T15:46:11.886Z,47.25
2018-01-10T15:48:40.562Z,52.22
2018-01-10T15:51:09.263Z,50.92
2018-01-10T15:53:37.944Z,55.88
2018-01-10T15:56:06.617Z,56.78
2018-01-10T15:58:35.323Z,47.25
2018-01-10T16:01:04.031Z,48.38
2018-01-10T16:03:32.767Z,52.95
2018-01-10T16:06:01.437Z,49.03
2018-01-10T16:08:30.867Z,52.80
2018-01-10T16:10:59.561Z,54.13
2018-01-10T16:13:28.233Z,51.28
2018-01-10T16:15:57.396Z,69.35
2018-01-10T16:18:26.074Z,53.22
2018-01-10T16:20:54.747Z,57.22
2018-01-10T16:23:23.450Z,51.80
2018-01-10T16:25:52.113Z,54.58
2018-01-10T16:28:20.934Z,45.58
2018-01-10T16:30:50.389Z,48.45
2018-01-10T16:33:19.265Z,48.30
2018-01-10T16:35:47.954Z,52.72
2018-01-10T16:38:16.624Z,45.35
2018-01-10T16:40:45.322Z,53.45
2018-01-10T16:43:14.008Z,48.97
2018-01-10T16:45:43.388Z,53.28
2018-01-10T16:48:12.838Z,50.45
2018-01-10T16:50:41.510Z,44.63
2018-01-10T16:53:10.215Z,52.58
2018-01-10T16:55:38.946Z,46.97
2018-01-10T16:58:08.398Z,47.95
2018-01-10T17:00:37.101Z,45.83
2018-01-10T17:03:05.774Z,47.55
2018-01-10T17:05:35.228Z,55.65
2018-01-10T17:08:03.905Z,52.60
2018-01-10T17:10:32.257Z,55.58
2018-01-10T17:13:01.054Z,51.40
2018-01-10T17:15:29.768Z,47.28
2018-01-10T17:17:58.429Z,52.62
2018-01-10T17:20:27.138Z,49.20
2018-01-10T17:22:57.253Z,57.55
2018-01-10T17:25:26.111Z,50.20
2018-01-10T17:27:54.786Z,53.70
2018-01-10T17:30:23.473Z,51.90
2018-01-10T17:32:52.154Z,54.53
2018-01-10T17:35:20.839Z,48.85
2018-01-10T17:37:49.540Z,53.17
2018-01-10T17:40:18.214Z,50.88
2018-01-10T17:42:46.887Z,55.80
2018-01-10T17:45:15.579Z,49.28
2018-01-10T17:47:44.269Z,47.30
2018-01-10T17:50:12.966Z,51.55
2018-01-10T17:52:41.637Z,49.35
2018-01-10T17:55:11.079Z,54.78
2018-01-10T17:57:39.783Z,66.47
2018-01-10T18:00:08.454Z,53.25
2018-01-10T18:02:37.170Z,55.03
2018-01-10T18:05:05.667Z,55.33
2018-01-10T18:07:35.118Z,57.92
2018-01-10T18:10:03.930Z,53.10
2018-01-10T18:12:33.562Z,53.00
2018-01-10T18:15:02.422Z,52.58
2018-01-10T18:17:31.651Z,55.17
2018-01-10T18:20:00.363Z,53.45
2018-01-10T18:22:29.935Z,50.08
2018-01-10T18:24:59.686Z,47.65
2018-01-10T18:27:29.796Z,48.50
2018-01-10T18:30:07.641Z,56.15
2018-01-10T18:32:45.120Z,59.35
2018-01-10T18:35:14.694Z,58.25
2018-01-10T18:37:44.573Z,55.42
2018-01-10T18:40:13.274Z,52.22
2018-01-10T18:42:42.000Z,50.30
2018-01-10T18:45:10.785Z,52.58
2018-01-10T18:47:39.511Z,59.28
2018-01-10T18:50:08.956Z,53.65
2018-01-10T18:52:41.099Z,57.13
2018-01-10T18:55:09.801Z,66.68
2018-01-10T18:57:38.562Z,56.70
2018-01-10T19:03:01.878Z,59.55
2018-01-10T19:05:30.589Z,61.03
2018-01-10T19:08:00.026Z,58.45
2018-01-10T19:10:28.729Z,56.13
2018-01-10T19:12:57.410Z,58.65
2018-01-10T19:15:26.120Z,57.20
2018-01-10T19:17:54.806Z,64.25
2018-01-10T19:20:23.484Z,60.33
2018-01-10T19:22:52.178Z,57.70
2018-01-10T19:25:20.857Z,62.53
2018-01-10T19:27:49.558Z,58.47
2018-01-10T19:30:18.233Z,58.53
2018-01-10T19:32:47.554Z,50.95
2018-01-10T19:35:16.238Z,55.22
2018-01-10T19:37:44.905Z,58.35
2018-01-10T19:40:13.601Z,58.17
2018-01-10T19:42:41.961Z,63.53
2018-01-10T19:45:10.632Z,66.82
2018-01-10T19:47:39.322Z,56.20
2018-01-10T19:50:07.981Z,54.30
2018-01-10T19:52:37.442Z,55.63
2018-01-10T19:55:06.126Z,59.97
2018-01-10T19:57:35.316Z,54.35
2018-01-10T20:00:04.008Z,61.28
2018-01-10T20:02:33.284Z,61.05
2018-01-10T20:05:01.986Z,59.13
2018-01-10T20:07:30.652Z,57.55
2018-01-10T20:09:59.335Z,59.75
2018-01-10T20:12:28.046Z,47.90
2018-01-10T20:14:56.766Z,82.45
2018-01-10T20:17:25.625Z,80.45
2018-01-10T20:19:54.293Z,52.97
2018-01-10T20:22:22.959Z,46.72
2018-01-10T20:24:51.666Z,48.70
2018-01-10T20:27:20.338Z,51.50
2018-01-10T20:29:49.034Z,52.28
2018-01-10T20:32:17.724Z,51.72
2018-01-10T20:34:46.401Z,51.15
2018-01-10T20:37:15.090Z,50.50
2018-01-10T20:39:43.749Z,56.92
2018-01-10T20:42:13.218Z,64.75
2018-01-10T20:44:42.844Z,51.25
2018-01-10T20:47:11.510Z,48.22
2018-01-10T20:49:40.198Z,53.92
2018-01-10T20:52:08.876Z,55.60
2018-01-10T20:54:37.571Z,52.05
2018-01-10T20:57:06.244Z,63.30
2018-01-10T20:59:35.810Z,57.28
2018-01-10T21:02:05.258Z,55.60
2018-01-10T21:04:33.937Z,50.78
2018-01-10T21:07:02.645Z,52.38
2018-01-10T21:09:31.331Z,60.40
2018-01-10T21:12:00.077Z,48.00
2018-01-10T21:14:29.532Z,54.67
2018-01-10T21:16:58.188Z,52.00
2018-01-10T21:19:26.869Z,50.55
2018-01-10T21:21:55.547Z,59.42
2018-01-10T21:24:24.211Z,55.60
2018-01-10T21:26:53.663Z,54.08
2018-01-10T21:29:22.326Z,55.45
2018-01-10T21:31:51.017Z,59.72
2018-01-10T21:34:19.684Z,56.88
2018-01-10T21:36:49.116Z,65.75
2018-01-10T21:39:17.796Z,55.22
2018-01-10T21:41:46.466Z,65.72
2018-01-10T21:44:16.548Z,56.72
2018-01-10T21:46:46.066Z,61.70
2018-01-10T21:49:14.733Z,56.85
2018-01-10T21:51:43.404Z,57.42
2018-01-10T21:54:12.094Z,61.88
2018-01-10T21:56:40.798Z,60.22
2018-01-10T21:59:09.465Z,59.47
2018-01-10T22:01:38.137Z,56.72
2018-01-10T22:04:06.828Z,62.60
2018-01-10T22:06:35.516Z,56.37
2018-01-10T22:09:03.665Z,60.63
2018-01-10T22:11:33.106Z,57.67
2018-01-10T22:14:01.788Z,61.33
2018-01-10T22:16:30.142Z,68.68
2018-01-10T22:18:58.821Z,61.25
2018-01-10T22:21:28.111Z,64.45
2018-01-10T22:23:57.553Z,61.17
2018-01-10T22:26:26.230Z,57.50
2018-01-10T22:28:54.929Z,60.47
2018-01-10T22:31:23.606Z,58.97
2018-01-10T22:33:52.305Z,57.30
2018-01-10T22:36:21.477Z,61.63
2018-01-10T22:38:50.143Z,56.85
2018-01-10T22:41:19.605Z,58.70
2018-01-10T22:43:48.294Z,54.38
2018-01-10T22:46:16.988Z,66.37
2018-01-10T22:48:57.776Z,64.75
2018-01-10T22:51:26.464Z,58.92
2018-01-10T22:53:55.150Z,63.55
2018-01-10T22:56:24.575Z,59.22
2018-01-10T23:02:02.554Z,64.85
2018-01-10T23:04:31.229Z,58.05
2018-01-10T23:06:59.893Z,53.17
2018-01-10T23:09:28.573Z,54.10
2018-01-10T23:11:58.006Z,56.40
2018-01-10T23:14:26.741Z,48.78
2018-01-10T23:16:55.404Z,56.15
2018-01-10T23:19:24.068Z,58.05
2018-01-10T23:21:52.748Z,47.55
2018-01-10T23:24:21.418Z,46.45
2018-01-10T23:26:50.845Z,46.13
2018-01-10T23:29:19.513Z,46.08
2018-01-10T23:31:48.177Z,40.40
2018-01-10T23:34:17.634Z,42.28
2018-01-10T23:36:46.309Z,46.65
2018-01-10T23:39:15.009Z,39.08
2018-01-10T23:41:43.692Z,38.60
2018-01-10T23:44:12.370Z,37.83
2018-01-10T23:46:41.060Z,41.13
2018-01-10T23:49:09.760Z,42.33
2018-01-10T23:51:38.462Z,44.05
2018-01-10T23:54:08.043Z,38.58
2018-01-10T23:56:36.845Z,44.35
2018-01-10T23:59:05.190Z,37.65
